sensor_id;sensor_type;location;lat;lon;timestamp;P1;durP1;ratioP1;P2;durP2;ratioP2
18661;SDS011;61528;49.456;11.098;2022-07-23T00:00:00;11.57;;;10.30;;
18661;SDS011;61528;49.456;11.098;2022-07-23T00:02:27;11.73;;;10.53;;
18661;SDS011;61528;49.456;11.098;2022-07-23T00:04:53;14.20;;;10.57;;
18661;SDS011;61528;49.456;11.098;2022-07-23T00:07:18;11.50;;;10.33;;
18661;SDS011;61528;49.456;11.098;2022-07-23T00:09:44;11.50;;;10.40;;
18661;SDS011;61528;49.456;11.098;2022-07-23T00:12:10;12.13;;;10.80;;
18661;SDS011;61528;49.456;11.098;2022-07-23T00:14:36;12.10;;;11.00;;
18661;SDS011;61528;49.456;11.098;2022-07-23T00:17:02;11.83;;;10.83;;
18661;SDS011;61528;49.456;11.098;2022-07-23T00:19:28;11.50;;;10.47;;
18661;SDS011;61528;49.456;11.098;2022-07-23T00:21:54;12.03;;;10.93;;
18661;SDS011;61528;49.456;11.098;2022-07-23T00:24:20;11.27;;;10.13;;
18661;SDS011;61528;49.456;11.098;2022-07-23T00:26:46;13.53;;;12.27;;
18661;SDS011;61528;49.456;11.098;2022-07-23T00:29:12;12.60;;;11.50;;
18661;SDS011;61528;49.456;11.098;2022-07-23T00:31:37;13.70;;;12.03;;
18661;SDS011;61528;49.456;11.098;2022-07-23T00:34:03;13.73;;;11.97;;
18661;SDS011;61528;49.456;11.098;2022-07-23T00:36:29;12.93;;;11.70;;
18661;SDS011;61528;49.456;11.098;2022-07-23T00:38:56;12.20;;;11.00;;
18661;SDS011;61528;49.456;11.098;2022-07-23T00:41:22;11.50;;;10.47;;
18661;SDS011;61528;49.456;11.098;2022-07-23T00:43:48;11.83;;;10.73;;
18661;SDS011;61528;49.456;11.098;2022-07-23T00:46:21;12.53;;;11.33;;
18661;SDS011;61528;49.456;11.098;2022-07-23T00:48:48;12.63;;;11.43;;
18661;SDS011;61528;49.456;11.098;2022-07-23T00:51:17;12.77;;;11.57;;
18661;SDS011;61528;49.456;11.098;2022-07-23T00:53:43;12.87;;;11.70;;
18661;SDS011;61528;49.456;11.098;2022-07-23T00:56:10;12.07;;;10.93;;
18661;SDS011;61528;49.456;11.098;2022-07-23T00:58:36;12.47;;;11.27;;
18661;SDS011;61528;49.456;11.098;2022-07-23T01:01:03;12.77;;;11.63;;
18661;SDS011;61528;49.456;11.098;2022-07-23T01:03:29;12.17;;;10.97;;
18661;SDS011;61528;49.456;11.098;2022-07-23T01:05:55;12.57;;;11.47;;
18661;SDS011;61528;49.456;11.098;2022-07-23T01:08:22;12.53;;;11.33;;
18661;SDS011;61528;49.456;11.098;2022-07-23T01:10:48;12.80;;;11.63;;
18661;SDS011;61528;49.456;11.098;2022-07-23T01:13:14;12.77;;;11.57;;
18661;SDS011;61528;49.456;11.098;2022-07-23T01:15:39;13.03;;;11.77;;
18661;SDS011;61528;49.456;11.098;2022-07-23T01:18:06;13.47;;;12.17;;
18661;SDS011;61528;49.456;11.098;2022-07-23T01:20:33;13.43;;;12.33;;
18661;SDS011;61528;49.456;11.098;2022-07-23T01:22:59;12.73;;;11.60;;
18661;SDS011;61528;49.456;11.098;2022-07-23T01:25:25;12.83;;;11.53;;
18661;SDS011;61528;49.456;11.098;2022-07-23T01:27:52;13.57;;;12.13;;
18661;SDS011;61528;49.456;11.098;2022-07-23T01:30:19;13.47;;;12.23;;
18661;SDS011;61528;49.456;11.098;2022-07-23T01:32:45;13.20;;;12.00;;
18661;SDS011;61528;49.456;11.098;2022-07-23T01:35:11;13.50;;;12.10;;
18661;SDS011;61528;49.456;11.098;2022-07-23T01:37:37;13.80;;;12.60;;
18661;SDS011;61528;49.456;11.098;2022-07-23T01:40:04;13.10;;;11.90;;
18661;SDS011;61528;49.456;11.098;2022-07-23T01:42:30;14.00;;;12.60;;
18661;SDS011;61528;49.456;11.098;2022-07-23T01:44:56;12.93;;;11.73;;
18661;SDS011;61528;49.456;11.098;2022-07-23T01:47:22;14.03;;;12.33;;
18661;SDS011;61528;49.456;11.098;2022-07-23T01:49:48;12.77;;;11.57;;
18661;SDS011;61528;49.456;11.098;2022-07-23T01:52:14;14.03;;;12.50;;
18661;SDS011;61528;49.456;11.098;2022-07-23T01:54:40;12.60;;;11.53;;
18661;SDS011;61528;49.456;11.098;2022-07-23T01:57:06;14.33;;;12.50;;
18661;SDS011;61528;49.456;11.098;2022-07-23T01:59:33;13.47;;;12.23;;
18661;SDS011;61528;49.456;11.098;2022-07-23T02:01:59;13.10;;;11.73;;
18661;SDS011;61528;49.456;11.098;2022-07-23T02:04:25;15.30;;;12.67;;
18661;SDS011;61528;49.456;11.098;2022-07-23T02:06:54;12.83;;;11.20;;
18661;SDS011;61528;49.456;11.098;2022-07-23T02:09:20;12.83;;;11.63;;
18661;SDS011;61528;49.456;11.098;2022-07-23T02:11:46;12.40;;;11.20;;
18661;SDS011;61528;49.456;11.098;2022-07-23T02:14:12;12.57;;;11.37;;
18661;SDS011;61528;49.456;11.098;2022-07-23T02:16:38;13.20;;;11.70;;
18661;SDS011;61528;49.456;11.098;2022-07-23T02:19:04;12.20;;;10.90;;
18661;SDS011;61528;49.456;11.098;2022-07-23T02:21:29;13.30;;;12.00;;
18661;SDS011;61528;49.456;11.098;2022-07-23T02:23:55;15.00;;;11.50;;
18661;SDS011;61528;49.456;11.098;2022-07-23T02:26:22;13.93;;;11.43;;
18661;SDS011;61528;49.456;11.098;2022-07-23T02:28:48;12.93;;;11.67;;
18661;SDS011;61528;49.456;11.098;2022-07-23T02:31:13;11.97;;;10.87;;
18661;SDS011;61528;49.456;11.098;2022-07-23T02:33:39;12.97;;;11.67;;
18661;SDS011;61528;49.456;11.098;2022-07-23T02:36:05;13.10;;;11.80;;
18661;SDS011;61528;49.456;11.098;2022-07-23T02:38:31;13.07;;;11.73;;
18661;SDS011;61528;49.456;11.098;2022-07-23T02:40:57;12.73;;;11.53;;
18661;SDS011;61528;49.456;11.098;2022-07-23T02:43:23;13.27;;;11.87;;
18661;SDS011;61528;49.456;11.098;2022-07-23T02:45:48;13.30;;;11.90;;
18661;SDS011;61528;49.456;11.098;2022-07-23T02:48:14;12.80;;;11.60;;
18661;SDS011;61528;49.456;11.098;2022-07-23T02:50:40;13.03;;;11.70;;
18661;SDS011;61528;49.456;11.098;2022-07-23T02:53:06;13.60;;;12.37;;
18661;SDS011;61528;49.456;11.098;2022-07-23T02:55:32;12.87;;;11.63;;
18661;SDS011;61528;49.456;11.098;2022-07-23T02:57:58;13.93;;;12.53;;
18661;SDS011;61528;49.456;11.098;2022-07-23T03:00:24;13.93;;;12.50;;
18661;SDS011;61528;49.456;11.098;2022-07-23T03:02:50;13.10;;;11.97;;
18661;SDS011;61528;49.456;11.098;2022-07-23T03:05:15;14.43;;;12.93;;
18661;SDS011;61528;49.456;11.098;2022-07-23T03:07:41;13.10;;;11.80;;
18661;SDS011;61528;49.456;11.098;2022-07-23T03:10:07;13.50;;;12.40;;
18661;SDS011;61528;49.456;11.098;2022-07-23T03:12:33;14.57;;;12.77;;
18661;SDS011;61528;49.456;11.098;2022-07-23T03:14:59;13.10;;;11.97;;
18661;SDS011;61528;49.456;11.098;2022-07-23T03:17:25;13.63;;;12.37;;
18661;SDS011;61528;49.456;11.098;2022-07-23T03:19:51;13.93;;;12.57;;
18661;SDS011;61528;49.456;11.098;2022-07-23T03:22:17;14.40;;;13.10;;
18661;SDS011;61528;49.456;11.098;2022-07-23T03:24:42;14.13;;;12.73;;
18661;SDS011;61528;49.456;11.098;2022-07-23T03:27:28;14.13;;;12.83;;
18661;SDS011;61528;49.456;11.098;2022-07-23T03:29:55;14.53;;;13.03;;
18661;SDS011;61528;49.456;11.098;2022-07-23T03:32:23;14.03;;;12.40;;
18661;SDS011;61528;49.456;11.098;2022-07-23T03:34:50;14.33;;;12.40;;
18661;SDS011;61528;49.456;11.098;2022-07-23T03:37:16;14.47;;;13.17;;
18661;SDS011;61528;49.456;11.098;2022-07-23T03:39:42;15.50;;;13.10;;
18661;SDS011;61528;49.456;11.098;2022-07-23T03:42:08;14.10;;;12.80;;
18661;SDS011;61528;49.456;11.098;2022-07-23T03:44:34;14.73;;;13.33;;
18661;SDS011;61528;49.456;11.098;2022-07-23T03:47:03;14.30;;;12.30;;
18661;SDS011;61528;49.456;11.098;2022-07-23T03:49:29;13.97;;;12.67;;
18661;SDS011;61528;49.456;11.098;2022-07-23T03:51:55;14.40;;;13.00;;
18661;SDS011;61528;49.456;11.098;2022-07-23T03:54:21;13.77;;;12.57;;
18661;SDS011;61528;49.456;11.098;2022-07-23T03:56:47;14.80;;;13.30;;
18661;SDS011;61528;49.456;11.098;2022-07-23T03:59:13;14.23;;;12.83;;
18661;SDS011;61528;49.456;11.098;2022-07-23T04:01:39;13.20;;;12.00;;
18661;SDS011;61528;49.456;11.098;2022-07-23T04:04:06;13.80;;;12.50;;
18661;SDS011;61528;49.456;11.098;2022-07-23T04:06:33;13.37;;;12.03;;
18661;SDS011;61528;49.456;11.098;2022-07-23T04:08:59;14.60;;;13.10;;
18661;SDS011;61528;49.456;11.098;2022-07-23T04:11:27;14.20;;;12.57;;
18661;SDS011;61528;49.456;11.098;2022-07-23T04:13:53;15.37;;;12.87;;
18661;SDS011;61528;49.456;11.098;2022-07-23T04:16:19;14.07;;;12.67;;
18661;SDS011;61528;49.456;11.098;2022-07-23T04:18:46;15.83;;;14.13;;
18661;SDS011;61528;49.456;11.098;2022-07-23T04:21:12;13.77;;;12.37;;
18661;SDS011;61528;49.456;11.098;2022-07-23T04:23:38;14.10;;;12.60;;
18661;SDS011;61528;49.456;11.098;2022-07-23T04:26:04;13.57;;;12.20;;
18661;SDS011;61528;49.456;11.098;2022-07-23T04:28:30;16.60;;;11.93;;
18661;SDS011;61528;49.456;11.098;2022-07-23T04:30:57;13.83;;;12.43;;
18661;SDS011;61528;49.456;11.098;2022-07-23T04:33:24;13.00;;;11.83;;
18661;SDS011;61528;49.456;11.098;2022-07-23T04:35:50;15.77;;;12.10;;
18661;SDS011;61528;49.456;11.098;2022-07-23T04:38:16;12.83;;;11.63;;
18661;SDS011;61528;49.456;11.098;2022-07-23T04:40:42;14.03;;;12.13;;
18661;SDS011;61528;49.456;11.098;2022-07-23T04:43:08;12.50;;;11.20;;
18661;SDS011;61528;49.456;11.098;2022-07-23T04:45:34;12.97;;;11.50;;
18661;SDS011;61528;49.456;11.098;2022-07-23T04:48:01;13.23;;;11.80;;
18661;SDS011;61528;49.456;11.098;2022-07-23T04:50:27;12.90;;;11.70;;
18661;SDS011;61528;49.456;11.098;2022-07-23T04:52:53;12.70;;;11.57;;
18661;SDS011;61528;49.456;11.098;2022-07-23T04:55:20;13.07;;;11.73;;
18661;SDS011;61528;49.456;11.098;2022-07-23T04:57:46;15.87;;;12.00;;
18661;SDS011;61528;49.456;11.098;2022-07-23T05:00:12;12.77;;;11.23;;
18661;SDS011;61528;49.456;11.098;2022-07-23T05:02:38;12.57;;;10.00;;
18661;SDS011;61528;49.456;11.098;2022-07-23T05:05:05;11.20;;;10.10;;
18661;SDS011;61528;49.456;11.098;2022-07-23T05:07:31;9.27;;;8.47;;
18661;SDS011;61528;49.456;11.098;2022-07-23T05:10:01;10.30;;;9.40;;
18661;SDS011;61528;49.456;11.098;2022-07-23T05:12:27;10.20;;;9.20;;
18661;SDS011;61528;49.456;11.098;2022-07-23T05:14:53;10.53;;;9.53;;
18661;SDS011;61528;49.456;11.098;2022-07-23T05:17:19;10.80;;;9.50;;
18661;SDS011;61528;49.456;11.098;2022-07-23T05:19:46;9.00;;;8.10;;
18661;SDS011;61528;49.456;11.098;2022-07-23T05:22:12;8.63;;;7.90;;
18661;SDS011;61528;49.456;11.098;2022-07-23T05:24:38;8.47;;;7.57;;
18661;SDS011;61528;49.456;11.098;2022-07-23T05:27:04;9.47;;;7.93;;
18661;SDS011;61528;49.456;11.098;2022-07-23T05:29:30;8.87;;;7.90;;
18661;SDS011;61528;49.456;11.098;2022-07-23T05:31:56;7.47;;;6.77;;
18661;SDS011;61528;49.456;11.098;2022-07-23T05:34:23;7.33;;;6.73;;
18661;SDS011;61528;49.456;11.098;2022-07-23T05:36:51;7.43;;;6.63;;
18661;SDS011;61528;49.456;11.098;2022-07-23T05:39:17;7.27;;;6.63;;
18661;SDS011;61528;49.456;11.098;2022-07-23T05:41:43;7.20;;;6.50;;
18661;SDS011;61528;49.456;11.098;2022-07-23T05:44:09;6.70;;;6.10;;
18661;SDS011;61528;49.456;11.098;2022-07-23T05:46:35;6.83;;;6.23;;
18661;SDS011;61528;49.456;11.098;2022-07-23T05:49:01;7.07;;;6.37;;
18661;SDS011;61528;49.456;11.098;2022-07-23T05:51:28;6.67;;;6.00;;
18661;SDS011;61528;49.456;11.098;2022-07-23T05:53:54;6.27;;;5.77;;
18661;SDS011;61528;49.456;11.098;2022-07-23T05:56:20;6.93;;;6.23;;
18661;SDS011;61528;49.456;11.098;2022-07-23T05:58:46;6.57;;;6.07;;
18661;SDS011;61528;49.456;11.098;2022-07-23T06:01:13;6.63;;;6.00;;
18661;SDS011;61528;49.456;11.098;2022-07-23T06:03:39;7.13;;;6.27;;
18661;SDS011;61528;49.456;11.098;2022-07-23T06:06:05;6.60;;;5.73;;
18661;SDS011;61528;49.456;11.098;2022-07-23T06:08:31;7.20;;;6.47;;
18661;SDS011;61528;49.456;11.098;2022-07-23T06:10:57;7.00;;;6.10;;
18661;SDS011;61528;49.456;11.098;2022-07-23T06:13:24;6.80;;;6.00;;
18661;SDS011;61528;49.456;11.098;2022-07-23T06:15:50;6.83;;;5.90;;
18661;SDS011;61528;49.456;11.098;2022-07-23T06:18:16;9.03;;;6.10;;
18661;SDS011;61528;49.456;11.098;2022-07-23T06:20:42;6.33;;;5.53;;
18661;SDS011;61528;49.456;11.098;2022-07-23T06:23:09;5.90;;;5.40;;
18661;SDS011;61528;49.456;11.098;2022-07-23T06:25:35;6.10;;;5.50;;
18661;SDS011;61528;49.456;11.098;2022-07-23T06:28:01;6.10;;;5.50;;
18661;SDS011;61528;49.456;11.098;2022-07-23T06:30:28;6.87;;;5.70;;
18661;SDS011;61528;49.456;11.098;2022-07-23T06:32:54;6.33;;;5.73;;
18661;SDS011;61528;49.456;11.098;2022-07-23T06:35:20;5.70;;;5.20;;
18661;SDS011;61528;49.456;11.098;2022-07-23T06:37:46;6.40;;;5.80;;
18661;SDS011;61528;49.456;11.098;2022-07-23T06:40:12;5.73;;;5.23;;
18661;SDS011;61528;49.456;11.098;2022-07-23T06:42:38;7.43;;;6.20;;
18661;SDS011;61528;49.456;11.098;2022-07-23T06:45:05;6.30;;;5.67;;
18661;SDS011;61528;49.456;11.098;2022-07-23T06:47:32;6.67;;;5.83;;
18661;SDS011;61528;49.456;11.098;2022-07-23T06:49:58;6.60;;;5.90;;
18661;SDS011;61528;49.456;11.098;2022-07-23T06:52:25;5.80;;;5.30;;
18661;SDS011;61528;49.456;11.098;2022-07-23T06:54:51;6.63;;;6.00;;
18661;SDS011;61528;49.456;11.098;2022-07-23T06:57:17;7.43;;;5.57;;
18661;SDS011;61528;49.456;11.098;2022-07-23T06:59:43;6.67;;;6.00;;
18661;SDS011;61528;49.456;11.098;2022-07-23T07:02:11;6.27;;;5.60;;
18661;SDS011;61528;49.456;11.098;2022-07-23T07:04:37;7.27;;;6.57;;
18661;SDS011;61528;49.456;11.098;2022-07-23T07:07:03;8.07;;;6.40;;
18661;SDS011;61528;49.456;11.098;2022-07-23T07:09:29;7.13;;;6.47;;
18661;SDS011;61528;49.456;11.098;2022-07-23T07:11:55;6.90;;;6.33;;
18661;SDS011;61528;49.456;11.098;2022-07-23T07:14:22;6.50;;;6.00;;
18661;SDS011;61528;49.456;11.098;2022-07-23T07:16:48;6.80;;;6.10;;
18661;SDS011;61528;49.456;11.098;2022-07-23T07:19:14;7.67;;;6.80;;
18661;SDS011;61528;49.456;11.098;2022-07-23T07:21:40;8.80;;;6.60;;
18661;SDS011;61528;49.456;11.098;2022-07-23T07:24:06;7.57;;;6.87;;
18661;SDS011;61528;49.456;11.098;2022-07-23T07:26:32;7.10;;;6.47;;
18661;SDS011;61528;49.456;11.098;2022-07-23T07:28:59;7.57;;;6.90;;
18661;SDS011;61528;49.456;11.098;2022-07-23T07:31:25;7.53;;;6.83;;
18661;SDS011;61528;49.456;11.098;2022-07-23T07:33:51;7.77;;;7.07;;
18661;SDS011;61528;49.456;11.098;2022-07-23T07:36:18;7.90;;;7.10;;
18661;SDS011;61528;49.456;11.098;2022-07-23T07:38:44;8.00;;;7.27;;
18661;SDS011;61528;49.456;11.098;2022-07-23T07:41:10;8.70;;;7.80;;
18661;SDS011;61528;49.456;11.098;2022-07-23T07:43:37;8.23;;;6.97;;
18661;SDS011;61528;49.456;11.098;2022-07-23T07:46:03;8.47;;;7.57;;
18661;SDS011;61528;49.456;11.098;2022-07-23T07:48:30;8.23;;;6.87;;
18661;SDS011;61528;49.456;11.098;2022-07-23T07:50:56;7.73;;;7.13;;
18661;SDS011;61528;49.456;11.098;2022-07-23T07:53:22;7.77;;;7.03;;
18661;SDS011;61528;49.456;11.098;2022-07-23T07:55:48;9.83;;;7.97;;
18661;SDS011;61528;49.456;11.098;2022-07-23T07:58:14;8.77;;;7.57;;
18661;SDS011;61528;49.456;11.098;2022-07-23T08:00:40;8.97;;;7.50;;
18661;SDS011;61528;49.456;11.098;2022-07-23T08:03:07;8.60;;;7.80;;
18661;SDS011;61528;49.456;11.098;2022-07-23T08:05:33;9.07;;;8.23;;
18661;SDS011;61528;49.456;11.098;2022-07-23T08:07:59;8.93;;;8.03;;
18661;SDS011;61528;49.456;11.098;2022-07-23T08:10:25;8.83;;;7.50;;
18661;SDS011;61528;49.456;11.098;2022-07-23T08:12:52;9.03;;;8.17;;
18661;SDS011;61528;49.456;11.098;2022-07-23T08:15:20;8.87;;;7.97;;
18661;SDS011;61528;49.456;11.098;2022-07-23T08:17:47;9.13;;;8.33;;
18661;SDS011;61528;49.456;11.098;2022-07-23T08:20:14;9.47;;;8.53;;
18661;SDS011;61528;49.456;11.098;2022-07-23T08:22:51;8.43;;;7.60;;
18661;SDS011;61528;49.456;11.098;2022-07-23T08:25:22;9.47;;;8.30;;
18661;SDS011;61528;49.456;11.098;2022-07-23T08:27:48;8.87;;;7.97;;
18661;SDS011;61528;49.456;11.098;2022-07-23T08:30:15;13.43;;;12.07;;
18661;SDS011;61528;49.456;11.098;2022-07-23T08:33:03;9.27;;;8.37;;
18661;SDS011;61528;49.456;11.098;2022-07-23T08:35:31;9.60;;;7.73;;
18661;SDS011;61528;49.456;11.098;2022-07-23T08:37:58;8.37;;;7.67;;
18661;SDS011;61528;49.456;11.098;2022-07-23T08:40:29;8.70;;;7.90;;
18661;SDS011;61528;49.456;11.098;2022-07-23T08:42:56;9.17;;;8.33;;
18661;SDS011;61528;49.456;11.098;2022-07-23T08:45:25;8.43;;;7.63;;
18661;SDS011;61528;49.456;11.098;2022-07-23T08:47:52;8.23;;;7.57;;
18661;SDS011;61528;49.456;11.098;2022-07-23T08:52:48;8.30;;;7.50;;
18661;SDS011;61528;49.456;11.098;2022-07-23T08:55:16;7.47;;;6.80;;
18661;SDS011;61528;49.456;11.098;2022-07-23T08:57:43;7.77;;;6.97;;
18661;SDS011;61528;49.456;11.098;2022-07-23T09:00:10;7.10;;;6.40;;
18661;SDS011;61528;49.456;11.098;2022-07-23T09:02:40;6.90;;;6.27;;
18661;SDS011;61528;49.456;11.098;2022-07-23T09:05:06;7.50;;;6.90;;
18661;SDS011;61528;49.456;11.098;2022-07-23T09:07:33;7.60;;;6.90;;
18661;SDS011;61528;49.456;11.098;2022-07-23T09:10:04;9.03;;;7.20;;
18661;SDS011;61528;49.456;11.098;2022-07-23T09:12:30;6.77;;;6.17;;
18661;SDS011;61528;49.456;11.098;2022-07-23T09:14:57;7.70;;;7.00;;
18661;SDS011;61528;49.456;11.098;2022-07-23T09:17:29;8.33;;;7.53;;
18661;SDS011;61528;49.456;11.098;2022-07-23T09:20:11;7.23;;;6.53;;
18661;SDS011;61528;49.456;11.098;2022-07-23T09:22:38;6.57;;;5.80;;
18661;SDS011;61528;49.456;11.098;2022-07-23T09:25:05;6.93;;;6.23;;
18661;SDS011;61528;49.456;11.098;2022-07-23T09:27:45;7.80;;;7.10;;
18661;SDS011;61528;49.456;11.098;2022-07-23T09:30:11;7.00;;;6.30;;
18661;SDS011;61528;49.456;11.098;2022-07-23T09:32:38;7.03;;;6.43;;
18661;SDS011;61528;49.456;11.098;2022-07-23T09:35:05;6.27;;;5.63;;
18661;SDS011;61528;49.456;11.098;2022-07-23T09:37:31;6.53;;;5.93;;
18661;SDS011;61528;49.456;11.098;2022-07-23T09:40:08;7.53;;;5.70;;
18661;SDS011;61528;49.456;11.098;2022-07-23T09:42:37;6.43;;;5.83;;
18661;SDS011;61528;49.456;11.098;2022-07-23T09:45:03;6.17;;;5.57;;
18661;SDS011;61528;49.456;11.098;2022-07-23T09:47:30;6.60;;;6.00;;
18661;SDS011;61528;49.456;11.098;2022-07-23T09:55:09;9.40;;;6.70;;
18661;SDS011;61528;49.456;11.098;2022-07-23T09:57:35;9.37;;;7.13;;
18661;SDS011;61528;49.456;11.098;2022-07-23T10:00:05;7.53;;;6.83;;
18661;SDS011;61528;49.456;11.098;2022-07-23T10:02:33;6.97;;;6.33;;
18661;SDS011;61528;49.456;11.098;2022-07-23T10:05:00;7.90;;;7.20;;
18661;SDS011;61528;49.456;11.098;2022-07-23T10:07:27;8.93;;;7.67;;
18661;SDS011;61528;49.456;11.098;2022-07-23T10:09:58;8.33;;;7.47;;
18661;SDS011;61528;49.456;11.098;2022-07-23T10:12:25;7.80;;;6.73;;
18661;SDS011;61528;49.456;11.098;2022-07-23T10:15:22;8.90;;;8.10;;
18661;SDS011;61528;49.456;11.098;2022-07-23T10:17:48;7.90;;;7.20;;
18661;SDS011;61528;49.456;11.098;2022-07-23T10:20:14;8.03;;;7.27;;
18661;SDS011;61528;49.456;11.098;2022-07-23T10:22:44;7.43;;;6.40;;
18661;SDS011;61528;49.456;11.098;2022-07-23T10:25:24;8.53;;;7.73;;
18661;SDS011;61528;49.456;11.098;2022-07-23T10:30:45;9.27;;;8.03;;
18661;SDS011;61528;49.456;11.098;2022-07-23T10:36:07;8.57;;;7.50;;
18661;SDS011;61528;49.456;11.098;2022-07-23T10:41:05;11.43;;;8.43;;
18661;SDS011;61528;49.456;11.098;2022-07-23T10:43:31;10.13;;;8.50;;
18661;SDS011;61528;49.456;11.098;2022-07-23T10:46:20;9.03;;;8.10;;
18661;SDS011;61528;49.456;11.098;2022-07-23T10:49:17;9.00;;;8.13;;
18661;SDS011;61528;49.456;11.098;2022-07-23T10:51:36;9.27;;;8.30;;
18661;SDS011;61528;49.456;11.098;2022-07-23T10:54:02;8.57;;;7.67;;
18661;SDS011;61528;49.456;11.098;2022-07-23T10:59:13;9.37;;;8.43;;
18661;SDS011;61528;49.456;11.098;2022-07-23T11:01:40;9.33;;;8.40;;
18661;SDS011;61528;49.456;11.098;2022-07-23T11:04:06;9.27;;;8.47;;
18661;SDS011;61528;49.456;11.098;2022-07-23T11:12:17;16.80;;;9.60;;
18661;SDS011;61528;49.456;11.098;2022-07-23T11:17:22;11.00;;;10.00;;
18661;SDS011;61528;49.456;11.098;2022-07-23T11:22:36;10.53;;;9.53;;
18661;SDS011;61528;49.456;11.098;2022-07-23T11:25:03;9.90;;;8.73;;
18661;SDS011;61528;49.456;11.098;2022-07-23T11:27:38;12.83;;;9.30;;
18661;SDS011;61528;49.456;11.098;2022-07-23T11:30:05;10.17;;;9.07;;
18661;SDS011;61528;49.456;11.098;2022-07-23T11:32:33;9.63;;;8.73;;
18661;SDS011;61528;49.456;11.098;2022-07-23T11:35:03;10.13;;;8.73;;
18661;SDS011;61528;49.456;11.098;2022-07-23T11:39:59;8.30;;;7.50;;
18661;SDS011;61528;49.456;11.098;2022-07-23T11:42:25;9.17;;;7.47;;
18661;SDS011;61528;49.456;11.098;2022-07-23T11:44:51;8.60;;;7.80;;
18661;SDS011;61528;49.456;11.098;2022-07-23T11:47:25;8.83;;;7.93;;
18661;SDS011;61528;49.456;11.098;2022-07-23T11:49:52;8.83;;;7.93;;
18661;SDS011;61528;49.456;11.098;2022-07-23T11:52:18;9.07;;;8.17;;
18661;SDS011;61528;49.456;11.098;2022-07-23T11:57:14;8.77;;;7.93;;
18661;SDS011;61528;49.456;11.098;2022-07-23T11:59:41;8.73;;;7.83;;
18661;SDS011;61528;49.456;11.098;2022-07-23T12:02:08;9.17;;;8.37;;
18661;SDS011;61528;49.456;11.098;2022-07-23T12:04:52;9.03;;;8.23;;
18661;SDS011;61528;49.456;11.098;2022-07-23T12:07:35;8.67;;;7.63;;
18661;SDS011;61528;49.456;11.098;2022-07-23T12:10:09;8.67;;;7.77;;
18661;SDS011;61528;49.456;11.098;2022-07-23T12:12:39;8.90;;;8.03;;
18661;SDS011;61528;49.456;11.098;2022-07-23T12:15:06;9.50;;;8.50;;
18661;SDS011;61528;49.456;11.098;2022-07-23T12:17:34;9.67;;;8.80;;
18661;SDS011;61528;49.456;11.098;2022-07-23T12:20:01;8.80;;;7.90;;
18661;SDS011;61528;49.456;11.098;2022-07-23T12:22:36;8.30;;;7.47;;
18661;SDS011;61528;49.456;11.098;2022-07-23T12:25:04;9.17;;;8.37;;
18661;SDS011;61528;49.456;11.098;2022-07-23T12:27:31;9.17;;;8.30;;
18661;SDS011;61528;49.456;11.098;2022-07-23T12:29:58;7.70;;;7.00;;
18661;SDS011;61528;49.456;11.098;2022-07-23T12:32:27;8.80;;;8.00;;
18661;SDS011;61528;49.456;11.098;2022-07-23T12:35:06;8.50;;;7.60;;
18661;SDS011;61528;49.456;11.098;2022-07-23T12:37:34;8.63;;;7.83;;
18661;SDS011;61528;49.456;11.098;2022-07-23T12:40:19;8.20;;;7.50;;
18661;SDS011;61528;49.456;11.098;2022-07-23T12:42:47;8.57;;;7.77;;
18661;SDS011;61528;49.456;11.098;2022-07-23T12:45:15;8.23;;;7.43;;
18661;SDS011;61528;49.456;11.098;2022-07-23T12:47:55;7.90;;;7.30;;
18661;SDS011;61528;49.456;11.098;2022-07-23T12:53:18;8.03;;;7.23;;
18661;SDS011;61528;49.456;11.098;2022-07-23T12:55:45;7.93;;;7.30;;
18661;SDS011;61528;49.456;11.098;2022-07-23T12:58:16;8.03;;;7.33;;
18661;SDS011;61528;49.456;11.098;2022-07-23T13:03:41;7.70;;;7.00;;
18661;SDS011;61528;49.456;11.098;2022-07-23T13:06:08;7.50;;;6.90;;
18661;SDS011;61528;49.456;11.098;2022-07-23T13:08:35;7.60;;;6.90;;
18661;SDS011;61528;49.456;11.098;2022-07-23T13:11:03;8.47;;;7.67;;
18661;SDS011;61528;49.456;11.098;2022-07-23T13:13:30;7.90;;;7.20;;
18661;SDS011;61528;49.456;11.098;2022-07-23T13:15:58;7.40;;;6.70;;
18661;SDS011;61528;49.456;11.098;2022-07-23T13:18:25;6.83;;;6.33;;
18661;SDS011;61528;49.456;11.098;2022-07-23T13:20:51;7.50;;;6.80;;
18661;SDS011;61528;49.456;11.098;2022-07-23T13:23:17;7.27;;;6.57;;
18661;SDS011;61528;49.456;11.098;2022-07-23T13:25:44;7.90;;;7.20;;
18661;SDS011;61528;49.456;11.098;2022-07-23T13:28:10;7.40;;;6.60;;
18661;SDS011;61528;49.456;11.098;2022-07-23T13:30:37;7.50;;;6.80;;
18661;SDS011;61528;49.456;11.098;2022-07-23T13:33:03;8.30;;;7.60;;
18661;SDS011;61528;49.456;11.098;2022-07-23T13:35:30;7.80;;;7.10;;
18661;SDS011;61528;49.456;11.098;2022-07-23T13:37:56;7.83;;;7.20;;
18661;SDS011;61528;49.456;11.098;2022-07-23T13:40:22;7.40;;;6.70;;
18661;SDS011;61528;49.456;11.098;2022-07-23T13:42:49;7.77;;;7.10;;
18661;SDS011;61528;49.456;11.098;2022-07-23T13:45:15;8.03;;;7.30;;
18661;SDS011;61528;49.456;11.098;2022-07-23T13:47:42;8.20;;;7.50;;
18661;SDS011;61528;49.456;11.098;2022-07-23T13:50:08;8.33;;;7.47;;
18661;SDS011;61528;49.456;11.098;2022-07-23T13:52:34;8.63;;;6.80;;
18661;SDS011;61528;49.456;11.098;2022-07-23T13:55:04;9.17;;;8.27;;
18661;SDS011;61528;49.456;11.098;2022-07-23T13:57:31;8.40;;;7.43;;
18661;SDS011;61528;49.456;11.098;2022-07-23T13:59:58;8.23;;;7.43;;
18661;SDS011;61528;49.456;11.098;2022-07-23T14:02:24;7.80;;;7.10;;
18661;SDS011;61528;49.456;11.098;2022-07-23T14:04:50;7.97;;;7.27;;
18661;SDS011;61528;49.456;11.098;2022-07-23T14:07:17;8.03;;;7.33;;
18661;SDS011;61528;49.456;11.098;2022-07-23T14:09:43;7.90;;;6.97;;
18661;SDS011;61528;49.456;11.098;2022-07-23T14:12:09;8.17;;;7.47;;
18661;SDS011;61528;49.456;11.098;2022-07-23T14:14:35;8.03;;;7.33;;
18661;SDS011;61528;49.456;11.098;2022-07-23T14:17:02;7.57;;;6.87;;
18661;SDS011;61528;49.456;11.098;2022-07-23T14:19:28;7.60;;;6.90;;
18661;SDS011;61528;49.456;11.098;2022-07-23T14:21:54;7.67;;;7.07;;
18661;SDS011;61528;49.456;11.098;2022-07-23T14:24:21;7.83;;;7.17;;
18661;SDS011;61528;49.456;11.098;2022-07-23T14:26:48;7.57;;;6.87;;
18661;SDS011;61528;49.456;11.098;2022-07-23T14:29:14;7.43;;;6.83;;
18661;SDS011;61528;49.456;11.098;2022-07-23T14:31:40;8.90;;;8.13;;
18661;SDS011;61528;49.456;11.098;2022-07-23T14:34:06;9.10;;;8.20;;
18661;SDS011;61528;49.456;11.098;2022-07-23T14:36:33;8.00;;;7.23;;
18661;SDS011;61528;49.456;11.098;2022-07-23T14:38:59;7.87;;;7.27;;
18661;SDS011;61528;49.456;11.098;2022-07-23T14:41:26;7.53;;;6.93;;
18661;SDS011;61528;49.456;11.098;2022-07-23T14:43:53;7.17;;;6.57;;
18661;SDS011;61528;49.456;11.098;2022-07-23T14:46:19;7.60;;;7.00;;
18661;SDS011;61528;49.456;11.098;2022-07-23T14:48:45;7.43;;;6.83;;
18661;SDS011;61528;49.456;11.098;2022-07-23T14:51:11;7.60;;;7.00;;
18661;SDS011;61528;49.456;11.098;2022-07-23T14:56:13;8.13;;;7.17;;
18661;SDS011;61528;49.456;11.098;2022-07-23T14:58:40;8.13;;;7.50;;
18661;SDS011;61528;49.456;11.098;2022-07-23T15:01:06;7.50;;;6.90;;
18661;SDS011;61528;49.456;11.098;2022-07-23T15:03:32;7.33;;;6.63;;
18661;SDS011;61528;49.456;11.098;2022-07-23T15:05:59;7.20;;;6.47;;